sensor_id;sensor_type;location;lat;lon;timestamp;P1;P2;P0
79537;PMS5003;68989;52.032;5.152;2024-02-23T00:01:19;2;2;
79537;PMS5003;68989;52.032;5.152;2024-02-23T00:03:47;2;2;
79537;PMS5003;68989;52.032;5.152;2024-02-23T00:06:14;1;1;
79537;PMS5003;68989;52.032;5.152;2024-02-23T00:08:40;4;2;
79537;PMS5003;68989;52.032;5.152;2024-02-23T00:11:07;1;1;
79537;PMS5003;68989;52.032;5.152;2024-02-23T00:13:34;2;2;
79537;PMS5003;68989;52.032;5.152;2024-02-23T00:16:01;2;2;
79537;PMS5003;68989;52.032;5.152;2024-02-23T00:18:28;1;1;
79537;PMS5003;68989;52.032;5.152;2024-02-23T00:20:55;2;2;
79537;PMS5003;68989;52.032;5.152;2024-02-23T00:23:22;5;4;
79537;PMS5003;68989;52.032;5.152;2024-02-23T00:25:48;3;3;
79537;PMS5003;68989;52.032;5.152;2024-02-23T00:28:15;2;2;
79537;PMS5003;68989;52.032;5.152;2024-02-23T00:30:42;2;2;
79537;PMS5003;68989;52.032;5.152;2024-02-23T00:33:09;3;3;
79537;PMS5003;68989;52.032;5.152;2024-02-23T00:35:36;6;3;
79537;PMS5003;68989;52.032;5.152;2024-02-23T00:38:03;6;2;
79537;PMS5003;68989;52.032;5.152;2024-02-23T00:40:31;2;2;
79537;PMS5003;68989;52.032;5.152;2024-02-23T00:42:58;3;2;
79537;PMS5003;68989;52.032;5.152;2024-02-23T00:45:24;2;2;
79537;PMS5003;68989;52.032;5.152;2024-02-23T00:47:51;1;1;
79537;PMS5003;68989;52.032;5.152;2024-02-23T00:50:19;1;1;
79537;PMS5003;68989;52.032;5.152;2024-02-23T00:52:46;2;2;
79537;PMS5003;68989;52.032;5.152;2024-02-23T00:55:12;2;2;
79537;PMS5003;68989;52.032;5.152;2024-02-23T00:57:39;1;1;
79537;PMS5003;68989;52.032;5.152;2024-02-23T01:00:07;3;1;
79537;PMS5003;68989;52.032;5.152;2024-02-23T01:02:34;3;3;
79537;PMS5003;68989;52.032;5.152;2024-02-23T01:05:01;2;2;
79537;PMS5003;68989;52.032;5.152;2024-02-23T01:07:28;4;3;
79537;PMS5003;68989;52.032;5.152;2024-02-23T01:09:55;1;1;
79537;PMS5003;68989;52.032;5.152;2024-02-23T01:12:22;2;2;
79537;PMS5003;68989;52.032;5.152;2024-02-23T01:14:48;1;1;
79537;PMS5003;68989;52.032;5.152;2024-02-23T01:17:15;1;1;
79537;PMS5003;68989;52.032;5.152;2024-02-23T01:19:43;1;1;
79537;PMS5003;68989;52.032;5.152;2024-02-23T01:22:10;0;0;
79537;PMS5003;68989;52.032;5.152;2024-02-23T01:24:38;1;1;
79537;PMS5003;68989;52.032;5.152;2024-02-23T01:27:05;2;2;
79537;PMS5003;68989;52.032;5.152;2024-02-23T01:29:32;1;1;
79537;PMS5003;68989;52.032;5.152;2024-02-23T01:31:59;3;2;
79537;PMS5003;68989;52.032;5.152;2024-02-23T01:34:26;3;2;
79537;PMS5003;68989;52.032;5.152;2024-02-23T01:36:53;1;1;
79537;PMS5003;68989;52.032;5.152;2024-02-23T01:39:20;1;1;
79537;PMS5003;68989;52.032;5.152;2024-02-23T01:41:47;2;2;
79537;PMS5003;68989;52.032;5.152;2024-02-23T01:44:14;1;1;
79537;PMS5003;68989;52.032;5.152;2024-02-23T01:46:42;2;2;
79537;PMS5003;68989;52.032;5.152;2024-02-23T01:49:09;1;1;
79537;PMS5003;68989;52.032;5.152;2024-02-23T01:51:36;1;1;
79537;PMS5003;68989;52.032;5.152;2024-02-23T01:54:03;3;3;
79537;PMS5003;68989;52.032;5.152;2024-02-23T01:56:31;1;1;
79537;PMS5003;68989;52.032;5.152;2024-02-23T01:58:59;2;2;
79537;PMS5003;68989;52.032;5.152;2024-02-23T02:01:49;1;1;
79537;PMS5003;68989;52.032;5.152;2024-02-23T02:04:16;2;2;
79537;PMS5003;68989;52.032;5.152;2024-02-23T02:06:44;5;3;
79537;PMS5003;68989;52.032;5.152;2024-02-23T02:09:12;2;1;
79537;PMS5003;68989;52.032;5.152;2024-02-23T02:11:44;4;3;
79537;PMS5003;68989;52.032;5.152;2024-02-23T02:14:12;2;2;
79537;PMS5003;68989;52.032;5.152;2024-02-23T02:16:39;0;0;
79537;PMS5003;68989;52.032;5.152;2024-02-23T02:19:06;1;1;
79537;PMS5003;68989;52.032;5.152;2024-02-23T02:21:33;2;2;
79537;PMS5003;68989;52.032;5.152;2024-02-23T02:24:01;0;0;
79537;PMS5003;68989;52.032;5.152;2024-02-23T02:26:28;2;2;
79537;PMS5003;68989;52.032;5.152;2024-02-23T02:28:55;1;1;
79537;PMS5003;68989;52.032;5.152;2024-02-23T02:31:22;2;2;
79537;PMS5003;68989;52.032;5.152;2024-02-23T02:33:48;2;2;
79537;PMS5003;68989;52.032;5.152;2024-02-23T02:36:15;4;1;
79537;PMS5003;68989;52.032;5.152;2024-02-23T02:38:42;3;2;
79537;PMS5003;68989;52.032;5.152;2024-02-23T02:41:09;2;2;
79537;PMS5003;68989;52.032;5.152;2024-02-23T02:43:36;1;1;
79537;PMS5003;68989;52.032;5.152;2024-02-23T02:46:03;1;1;
79537;PMS5003;68989;52.032;5.152;2024-02-23T02:48:30;1;1;
79537;PMS5003;68989;52.032;5.152;2024-02-23T02:50:56;2;2;
79537;PMS5003;68989;52.032;5.152;2024-02-23T02:53:23;5;2;
79537;PMS5003;68989;52.032;5.152;2024-02-23T02:55:50;2;2;
79537;PMS5003;68989;52.032;5.152;2024-02-23T02:58:17;3;3;
79537;PMS5003;68989;52.032;5.152;2024-02-23T03:00:44;3;2;
79537;PMS5003;68989;52.032;5.152;2024-02-23T03:03:11;2;2;
79537;PMS5003;68989;52.032;5.152;2024-02-23T03:05:38;3;3;
79537;PMS5003;68989;52.032;5.152;2024-02-23T03:08:05;2;2;
79537;PMS5003;68989;52.032;5.152;2024-02-23T03:10:33;4;3;
79537;PMS5003;68989;52.032;5.152;2024-02-23T03:12:59;3;3;
79537;PMS5003;68989;52.032;5.152;2024-02-23T03:15:26;2;2;
79537;PMS5003;68989;52.032;5.152;2024-02-23T03:17:53;5;3;
79537;PMS5003;68989;52.032;5.152;2024-02-23T03:20:22;3;2;
79537;PMS5003;68989;52.032;5.152;2024-02-23T03:22:48;3;3;
79537;PMS5003;68989;52.032;5.152;2024-02-23T03:25:15;2;2;
79537;PMS5003;68989;52.032;5.152;2024-02-23T03:27:42;2;2;
79537;PMS5003;68989;52.032;5.152;2024-02-23T03:30:10;2;2;
79537;PMS5003;68989;52.032;5.152;2024-02-23T03:32:37;3;3;
79537;PMS5003;68989;52.032;5.152;2024-02-23T03:35:05;3;3;
79537;PMS5003;68989;52.032;5.152;2024-02-23T03:37:33;4;4;
79537;PMS5003;68989;52.032;5.152;2024-02-23T03:39:59;4;4;
79537;PMS5003;68989;52.032;5.152;2024-02-23T03:42:26;3;3;
79537;PMS5003;68989;52.032;5.152;2024-02-23T03:44:54;2;2;
79537;PMS5003;68989;52.032;5.152;2024-02-23T03:47:21;6;3;
79537;PMS5003;68989;52.032;5.152;2024-02-23T03:49:48;3;3;
79537;PMS5003;68989;52.032;5.152;2024-02-23T03:52:15;2;2;
79537;PMS5003;68989;52.032;5.152;2024-02-23T03:54:42;2;1;
79537;PMS5003;68989;52.032;5.152;2024-02-23T03:57:09;6;2;
79537;PMS5003;68989;52.032;5.152;2024-02-23T03:59:36;2;2;
79537;PMS5003;68989;52.032;5.152;2024-02-23T04:02:04;3;2;
79537;PMS5003;68989;52.032;5.152;2024-02-23T04:04:31;2;2;
79537;PMS5003;68989;52.032;5.152;2024-02-23T04:06:58;4;2;
79537;PMS5003;68989;52.032;5.152;2024-02-23T04:09:25;2;2;
79537;PMS5003;68989;52.032;5.152;2024-02-23T04:11:52;1;1;
79537;PMS5003;68989;52.032;5.152;2024-02-23T04:14:19;3;1;
79537;PMS5003;68989;52.032;5.152;2024-02-23T04:16:45;4;2;
79537;PMS5003;68989;52.032;5.152;2024-02-23T04:19:12;1;1;
79537;PMS5003;68989;52.032;5.152;2024-02-23T04:21:39;3;3;
79537;PMS5003;68989;52.032;5.152;2024-02-23T04:24:06;2;2;
79537;PMS5003;68989;52.032;5.152;2024-02-23T04:26:33;2;2;
79537;PMS5003;68989;52.032;5.152;2024-02-23T04:29:00;2;2;
79537;PMS5003;68989;52.032;5.152;2024-02-23T04:31:27;2;2;
79537;PMS5003;68989;52.032;5.152;2024-02-23T04:33:54;3;2;
79537;PMS5003;68989;52.032;5.152;2024-02-23T04:36:21;4;2;
79537;PMS5003;68989;52.032;5.152;2024-02-23T04:38:47;2;2;
79537;PMS5003;68989;52.032;5.152;2024-02-23T04:41:19;1;1;
79537;PMS5003;68989;52.032;5.152;2024-02-23T04:43:46;2;2;
79537;PMS5003;68989;52.032;5.152;2024-02-23T04:46:13;3;3;
79537;PMS5003;68989;52.032;5.152;2024-02-23T04:48:40;2;2;
79537;PMS5003;68989;52.032;5.152;2024-02-23T04:51:07;4;3;
79537;PMS5003;68989;52.032;5.152;2024-02-23T04:53:35;2;2;
79537;PMS5003;68989;52.032;5.152;2024-02-23T04:56:03;3;3;
79537;PMS5003;68989;52.032;5.152;2024-02-23T04:58:31;3;3;
79537;PMS5003;68989;52.032;5.152;2024-02-23T05:00:58;3;3;
79537;PMS5003;68989;52.032;5.152;2024-02-23T05:03:25;4;3;
79537;PMS5003;68989;52.032;5.152;2024-02-23T05:05:52;3;2;
79537;PMS5003;68989;52.032;5.152;2024-02-23T05:08:19;4;3;
79537;PMS5003;68989;52.032;5.152;2024-02-23T05:10:45;3;3;
79537;PMS5003;68989;52.032;5.152;2024-02-23T05:13:12;3;2;
79537;PMS5003;68989;52.032;5.152;2024-02-23T05:15:39;3;3;
79537;PMS5003;68989;52.032;5.152;2024-02-23T05:18:06;2;2;
79537;PMS5003;68989;52.032;5.152;2024-02-23T05:20:33;2;2;
79537;PMS5003;68989;52.032;5.152;2024-02-23T05:23:00;4;2;
79537;PMS5003;68989;52.032;5.152;2024-02-23T05:25:27;4;4;
79537;PMS5003;68989;52.032;5.152;2024-02-23T05:27:54;4;4;
79537;PMS5003;68989;52.032;5.152;2024-02-23T05:30:21;7;5;
79537;PMS5003;68989;52.032;5.152;2024-02-23T05:32:48;5;4;
79537;PMS5003;68989;52.032;5.152;2024-02-23T05:35:15;3;3;
79537;PMS5003;68989;52.032;5.152;2024-02-23T05:37:43;5;5;
79537;PMS5003;68989;52.032;5.152;2024-02-23T05:40:10;6;4;
79537;PMS5003;68989;52.032;5.152;2024-02-23T05:42:37;4;4;
79537;PMS5003;68989;52.032;5.152;2024-02-23T05:45:06;7;7;
79537;PMS5003;68989;52.032;5.152;2024-02-23T05:47:33;5;5;
79537;PMS5003;68989;52.032;5.152;2024-02-23T05:50:00;7;7;
79537;PMS5003;68989;52.032;5.152;2024-02-23T05:52:27;4;4;
79537;PMS5003;68989;52.032;5.152;2024-02-23T05:54:54;7;7;
79537;PMS5003;68989;52.032;5.152;2024-02-23T05:57:22;7;7;
79537;PMS5003;68989;52.032;5.152;2024-02-23T05:59:50;5;5;
79537;PMS5003;68989;52.032;5.152;2024-02-23T06:02:17;8;7;
79537;PMS5003;68989;52.032;5.152;2024-02-23T06:04:45;5;5;
79537;PMS5003;68989;52.032;5.152;2024-02-23T06:07:12;7;5;
79537;PMS5003;68989;52.032;5.152;2024-02-23T06:09:39;5;5;
79537;PMS5003;68989;52.032;5.152;2024-02-23T06:12:07;8;6;
79537;PMS5003;68989;52.032;5.152;2024-02-23T06:14:34;7;7;
79537;PMS5003;68989;52.032;5.152;2024-02-23T06:17:02;5;5;
79537;PMS5003;68989;52.032;5.152;2024-02-23T06:19:29;5;5;
79537;PMS5003;68989;52.032;5.152;2024-02-23T06:21:56;6;6;
79537;PMS5003;68989;52.032;5.152;2024-02-23T06:24:23;7;7;
79537;PMS5003;68989;52.032;5.152;2024-02-23T06:26:50;7;7;
79537;PMS5003;68989;52.032;5.152;2024-02-23T06:29:17;5;5;
79537;PMS5003;68989;52.032;5.152;2024-02-23T06:31:44;7;6;
79537;PMS5003;68989;52.032;5.152;2024-02-23T06:34:11;5;5;
79537;PMS5003;68989;52.032;5.152;2024-02-23T06:36:38;6;4;
79537;PMS5003;68989;52.032;5.152;2024-02-23T06:39:05;4;4;
79537;PMS5003;68989;52.032;5.152;2024-02-23T06:41:32;5;3;
79537;PMS5003;68989;52.032;5.152;2024-02-23T06:43:59;6;4;
79537;PMS5003;68989;52.032;5.152;2024-02-23T06:46:26;5;3;
79537;PMS5003;68989;52.032;5.152;2024-02-23T06:48:53;4;4;
79537;PMS5003;68989;52.032;5.152;2024-02-23T06:51:20;3;3;
79537;PMS5003;68989;52.032;5.152;2024-02-23T06:53:47;2;2;
79537;PMS5003;68989;52.032;5.152;2024-02-23T06:56:14;5;4;
79537;PMS5003;68989;52.032;5.152;2024-02-23T06:58:40;5;3;
79537;PMS5003;68989;52.032;5.152;2024-02-23T07:01:07;4;4;
79537;PMS5003;68989;52.032;5.152;2024-02-23T07:03:34;4;4;
79537;PMS5003;68989;52.032;5.152;2024-02-23T07:06:01;5;4;
79537;PMS5003;68989;52.032;5.152;2024-02-23T07:08:28;5;4;
79537;PMS5003;68989;52.032;5.152;2024-02-23T07:10:55;4;4;
79537;PMS5003;68989;52.032;5.152;2024-02-23T07:13:22;3;3;
79537;PMS5003;68989;52.032;5.152;2024-02-23T07:15:49;5;5;
79537;PMS5003;68989;52.032;5.152;2024-02-23T07:18:16;3;3;
79537;PMS5003;68989;52.032;5.152;2024-02-23T07:20:42;4;4;
79537;PMS5003;68989;52.032;5.152;2024-02-23T07:23:10;6;4;
79537;PMS5003;68989;52.032;5.152;2024-02-23T07:25:36;4;4;
79537;PMS5003;68989;52.032;5.152;2024-02-23T07:28:03;1;1;
79537;PMS5003;68989;52.032;5.152;2024-02-23T07:30:31;3;3;
79537;PMS5003;68989;52.032;5.152;2024-02-23T07:32:58;4;4;
79537;PMS5003;68989;52.032;5.152;2024-02-23T07:35:26;4;4;
79537;PMS5003;68989;52.032;5.152;2024-02-23T07:37:53;5;4;
79537;PMS5003;68989;52.032;5.152;2024-02-23T07:40:21;2;2;
79537;PMS5003;68989;52.032;5.152;2024-02-23T07:42:48;4;4;
79537;PMS5003;68989;52.032;5.152;2024-02-23T07:45:15;3;3;
79537;PMS5003;68989;52.032;5.152;2024-02-23T07:47:42;3;3;
79537;PMS5003;68989;52.032;5.152;2024-02-23T07:50:09;2;2;
79537;PMS5003;68989;52.032;5.152;2024-02-23T07:52:36;3;2;
79537;PMS5003;68989;52.032;5.152;2024-02-23T07:55:04;1;1;
79537;PMS5003;68989;52.032;5.152;2024-02-23T07:57:32;2;2;
79537;PMS5003;68989;52.032;5.152;2024-02-23T07:59:59;3;3;
79537;PMS5003;68989;52.032;5.152;2024-02-23T08:02:26;4;4;
79537;PMS5003;68989;52.032;5.152;2024-02-23T08:04:53;3;3;
79537;PMS5003;68989;52.032;5.152;2024-02-23T08:07:20;2;2;
79537;PMS5003;68989;52.032;5.152;2024-02-23T08:09:46;2;2;
79537;PMS5003;68989;52.032;5.152;2024-02-23T08:12:13;3;2;
79537;PMS5003;68989;52.032;5.152;2024-02-23T08:14:40;5;3;
79537;PMS5003;68989;52.032;5.152;2024-02-23T08:17:07;4;4;
79537;PMS5003;68989;52.032;5.152;2024-02-23T08:19:34;5;5;
79537;PMS5003;68989;52.032;5.152;2024-02-23T08:22:00;5;5;
79537;PMS5003;68989;52.032;5.152;2024-02-23T08:24:27;5;3;
79537;PMS5003;68989;52.032;5.152;2024-02-23T08:26:54;4;4;
79537;PMS5003;68989;52.032;5.152;2024-02-23T08:29:21;7;6;
79537;PMS5003;68989;52.032;5.152;2024-02-23T08:31:48;8;6;
79537;PMS5003;68989;52.032;5.152;2024-02-23T08:34:15;5;5;
79537;PMS5003;68989;52.032;5.152;2024-02-23T08:36:42;4;4;
79537;PMS5003;68989;52.032;5.152;2024-02-23T08:39:10;7;6;
79537;PMS5003;68989;52.032;5.152;2024-02-23T08:41:36;6;3;
79537;PMS5003;68989;52.032;5.152;2024-02-23T08:44:03;8;4;
79537;PMS5003;68989;52.032;5.152;2024-02-23T08:46:30;6;4;
79537;PMS5003;68989;52.032;5.152;2024-02-23T08:48:57;5;5;
79537;PMS5003;68989;52.032;5.152;2024-02-23T08:51:24;3;3;
79537;PMS5003;68989;52.032;5.152;2024-02-23T08:53:51;4;4;
79537;PMS5003;68989;52.032;5.152;2024-02-23T08:56:18;5;5;
79537;PMS5003;68989;52.032;5.152;2024-02-23T08:58:45;6;6;
79537;PMS5003;68989;52.032;5.152;2024-02-23T09:01:12;3;3;
79537;PMS5003;68989;52.032;5.152;2024-02-23T09:03:39;3;2;
79537;PMS5003;68989;52.032;5.152;2024-02-23T09:06:06;3;3;
79537;PMS5003;68989;52.032;5.152;2024-02-23T09:08:33;5;4;
79537;PMS5003;68989;52.032;5.152;2024-02-23T09:11:00;4;4;
79537;PMS5003;68989;52.032;5.152;2024-02-23T09:13:27;7;5;
79537;PMS5003;68989;52.032;5.152;2024-02-23T09:15:54;6;5;
79537;PMS5003;68989;52.032;5.152;2024-02-23T09:18:21;4;4;
79537;PMS5003;68989;52.032;5.152;2024-02-23T09:20:48;4;4;
79537;PMS5003;68989;52.032;5.152;2024-02-23T09:23:15;3;3;
79537;PMS5003;68989;52.032;5.152;2024-02-23T09:25:41;3;3;
79537;PMS5003;68989;52.032;5.152;2024-02-23T09:28:08;5;4;
79537;PMS5003;68989;52.032;5.152;2024-02-23T09:30:35;3;3;
79537;PMS5003;68989;52.032;5.152;2024-02-23T09:33:02;4;2;
79537;PMS5003;68989;52.032;5.152;2024-02-23T09:35:30;5;2;
79537;PMS5003;68989;52.032;5.152;2024-02-23T09:37:57;2;2;
79537;PMS5003;68989;52.032;5.152;2024-02-23T09:40:24;4;4;
79537;PMS5003;68989;52.032;5.152;2024-02-23T09:42:54;6;4;
79537;PMS5003;68989;52.032;5.152;2024-02-23T09:45:22;4;3;
79537;PMS5003;68989;52.032;5.152;2024-02-23T09:47:50;5;4;
79537;PMS5003;68989;52.032;5.152;2024-02-23T09:50:18;3;3;
79537;PMS5003;68989;52.032;5.152;2024-02-23T09:52:48;7;6;
79537;PMS5003;68989;52.032;5.152;2024-02-23T09:55:15;3;3;
79537;PMS5003;68989;52.032;5.152;2024-02-23T09:57:43;2;2;
79537;PMS5003;68989;52.032;5.152;2024-02-23T10:00:11;5;3;
79537;PMS5003;68989;52.032;5.152;2024-02-23T10:02:41;6;4;
79537;PMS5003;68989;52.032;5.152;2024-02-23T10:05:10;4;4;
79537;PMS5003;68989;52.032;5.152;2024-02-23T10:07:37;5;3;
79537;PMS5003;68989;52.032;5.152;2024-02-23T10:10:06;6;3;
79537;PMS5003;68989;52.032;5.152;2024-02-23T10:12:33;5;3;
79537;PMS5003;68989;52.032;5.152;2024-02-23T10:15:05;6;6;
79537;PMS5003;68989;52.032;5.152;2024-02-23T10:17:33;3;3;
79537;PMS5003;68989;52.032;5.152;2024-02-23T10:20:00;3;3;
79537;PMS5003;68989;52.032;5.152;2024-02-23T10:22:27;2;2;
79537;PMS5003;68989;52.032;5.152;2024-02-23T10:24:57;4;4;
79537;PMS5003;68989;52.032;5.152;2024-02-23T10:27:24;2;2;
79537;PMS5003;68989;52.032;5.152;2024-02-23T10:29:51;4;3;
79537;PMS5003;68989;52.032;5.152;2024-02-23T10:32:18;2;2;
79537;PMS5003;68989;52.032;5.152;2024-02-23T10:34:47;5;5;
79537;PMS5003;68989;52.032;5.152;2024-02-23T10:37:15;3;3;
79537;PMS5003;68989;52.032;5.152;2024-02-23T10:39:42;5;3;
79537;PMS5003;68989;52.032;5.152;2024-02-23T10:42:09;5;4;
79537;PMS5003;68989;52.032;5.152;2024-02-23T10:44:36;4;4;
79537;PMS5003;68989;52.032;5.152;2024-02-23T10:47:04;4;3;
79537;PMS5003;68989;52.032;5.152;2024-02-23T10:49:33;6;5;
79537;PMS5003;68989;52.032;5.152;2024-02-23T10:52:01;6;4;
79537;PMS5003;68989;52.032;5.152;2024-02-23T10:54:29;5;5;
79537;PMS5003;68989;52.032;5.152;2024-02-23T10:56:58;4;4;
79537;PMS5003;68989;52.032;5.152;2024-02-23T10:59:25;4;4;
79537;PMS5003;68989;52.032;5.152;2024-02-23T11:01:54;5;5;
79537;PMS5003;68989;52.032;5.152;2024-02-23T11:04:22;5;5;
79537;PMS5003;68989;52.032;5.152;2024-02-23T11:06:50;5;5;
79537;PMS5003;68989;52.032;5.152;2024-02-23T11:09:20;6;6;
79537;PMS5003;68989;52.032;5.152;2024-02-23T11:11:53;5;4;
79537;PMS5003;68989;52.032;5.152;2024-02-23T11:14:29;6;6;
79537;PMS5003;68989;52.032;5.152;2024-02-23T11:16:57;6;6;
79537;PMS5003;68989;52.032;5.152;2024-02-23T11:19:31;9;7;
79537;PMS5003;68989;52.032;5.152;2024-02-23T11:21:59;5;5;
79537;PMS5003;68989;52.032;5.152;2024-02-23T11:24:28;5;5;
79537;PMS5003;68989;52.032;5.152;2024-02-23T11:26:56;5;5;
79537;PMS5003;68989;52.032;5.152;2024-02-23T11:29:25;7;6;
79537;PMS5003;68989;52.032;5.152;2024-02-23T11:31:53;8;7;
79537;PMS5003;68989;52.032;5.152;2024-02-23T11:34:22;5;5;
79537;PMS5003;68989;52.032;5.152;2024-02-23T11:36:50;6;5;
79537;PMS5003;68989;52.032;5.152;2024-02-23T11:39:17;7;5;
79537;PMS5003;68989;52.032;5.152;2024-02-23T11:41:47;6;5;
79537;PMS5003;68989;52.032;5.152;2024-02-23T11:44:15;5;5;
79537;PMS5003;68989;52.032;5.152;2024-02-23T11:46:42;6;6;
79537;PMS5003;68989;52.032;5.152;2024-02-23T11:49:10;4;4;
79537;PMS5003;68989;52.032;5.152;2024-02-23T11:51:37;5;5;
79537;PMS5003;68989;52.032;5.152;2024-02-23T11:54:04;6;6;
79537;PMS5003;68989;52.032;5.152;2024-02-23T11:56:32;4;4;
79537;PMS5003;68989;52.032;5.152;2024-02-23T11:58:59;5;5;
79537;PMS5003;68989;52.032;5.152;2024-02-23T12:01:28;4;4;
79537;PMS5003;68989;52.032;5.152;2024-02-23T12:03:56;4;4;
79537;PMS5003;68989;52.032;5.152;2024-02-23T12:06:23;4;4;
79537;PMS5003;68989;52.032;5.152;2024-02-23T12:08:50;6;5;
79537;PMS5003;68989;52.032;5.152;2024-02-23T12:11:17;4;4;
79537;PMS5003;68989;52.032;5.152;2024-02-23T12:13:45;5;5;
79537;PMS5003;68989;52.032;5.152;2024-02-23T12:16:14;7;5;
79537;PMS5003;68989;52.032;5.152;2024-02-23T12:18:41;6;6;
79537;PMS5003;68989;52.032;5.152;2024-02-23T12:21:08;5;5;
79537;PMS5003;68989;52.032;5.152;2024-02-23T12:23:43;7;6;
79537;PMS5003;68989;52.032;5.152;2024-02-23T12:26:13;5;4;
79537;PMS5003;68989;52.032;5.152;2024-02-23T12:28:40;4;4;
79537;PMS5003;68989;52.032;5.152;2024-02-23T12:31:08;6;6;
79537;PMS5003;68989;52.032;5.152;2024-02-23T12:33:36;4;4;
79537;PMS5003;68989;52.032;5.152;2024-02-23T12:36:04;5;4;
79537;PMS5003;68989;52.032;5.152;2024-02-23T12:38:33;6;4;
79537;PMS5003;68989;52.032;5.152;2024-02-23T12:41:02;6;6;
79537;PMS5003;68989;52.032;5.152;2024-02-23T12:43:29;4;4;
79537;PMS5003;68989;52.032;5.152;2024-02-23T12:45:57;6;6;
79537;PMS5003;68989;52.032;5.152;2024-02-23T12:48:24;4;4;
79537;PMS5003;68989;52.032;5.152;2024-02-23T12:50:51;6;6;
79537;PMS5003;68989;52.032;5.152;2024-02-23T12:53:30;3;3;
79537;PMS5003;68989;52.032;5.152;2024-02-23T12:55:58;4;4;
79537;PMS5003;68989;52.032;5.152;2024-02-23T12:58:26;4;4;
79537;PMS5003;68989;52.032;5.152;2024-02-23T13:00:52;4;4;
79537;PMS5003;68989;52.032;5.152;2024-02-23T13:03:20;2;2;
79537;PMS5003;68989;52.032;5.152;2024-02-23T13:05:48;6;5;
79537;PMS5003;68989;52.032;5.152;2024-02-23T13:08:14;2;2;
79537;PMS5003;68989;52.032;5.152;2024-02-23T13:10:41;3;3;
79537;PMS5003;68989;52.032;5.152;2024-02-23T13:13:09;4;4;
79537;PMS5003;68989;52.032;5.152;2024-02-23T13:15:36;4;4;
79537;PMS5003;68989;52.032;5.152;2024-02-23T13:18:04;5;4;
79537;PMS5003;68989;52.032;5.152;2024-02-23T13:20:31;7;4;
79537;PMS5003;68989;52.032;5.152;2024-02-23T13:22:58;5;5;
79537;PMS5003;68989;52.032;5.152;2024-02-23T13:25:25;5;5;
79537;PMS5003;68989;52.032;5.152;2024-02-23T13:27:54;5;5;
79537;PMS5003;68989;52.032;5.152;2024-02-23T13:30:21;5;5;
79537;PMS5003;68989;52.032;5.152;2024-02-23T13:32:48;5;5;
79537;PMS5003;68989;52.032;5.152;2024-02-23T13:35:15;7;7;
79537;PMS5003;68989;52.032;5.152;2024-02-23T13:37:42;6;6;
79537;PMS5003;68989;52.032;5.152;2024-02-23T13:40:09;5;5;
79537;PMS5003;68989;52.032;5.152;2024-02-23T13:42:36;4;4;
79537;PMS5003;68989;52.032;5.152;2024-02-23T13:45:04;6;6;
79537;PMS5003;68989;52.032;5.152;2024-02-23T13:47:32;6;6;
79537;PMS5003;68989;52.032;5.152;2024-02-23T13:49:59;6;6;
79537;PMS5003;68989;52.032;5.152;2024-02-23T13:52:27;5;5;
79537;PMS5003;68989;52.032;5.152;2024-02-23T13:54:55;5;5;
79537;PMS5003;68989;52.032;5.152;2024-02-23T13:57:23;6;6;
79537;PMS5003;68989;52.032;5.152;2024-02-23T13:59:51;6;6;
79537;PMS5003;68989;52.032;5.152;2024-02-23T14:02:23;6;6;
79537;PMS5003;68989;52.032;5.152;2024-02-23T14:04:52;6;6;
79537;PMS5003;68989;52.032;5.152;2024-02-23T14:07:20;4;4;
79537;PMS5003;68989;52.032;5.152;2024-02-23T14:09:47;5;5;
79537;PMS5003;68989;52.032;5.152;2024-02-23T14:12:14;4;4;
79537;PMS5003;68989;52.032;5.152;2024-02-23T14:14:40;4;4;
79537;PMS5003;68989;52.032;5.152;2024-02-23T14:17:07;3;3;
79537;PMS5003;68989;52.032;5.152;2024-02-23T14:19:34;3;3;
79537;PMS5003;68989;52.032;5.152;2024-02-23T14:22:02;7;6;
79537;PMS5003;68989;52.032;5.152;2024-02-23T14:24:28;5;4;
79537;PMS5003;68989;52.032;5.152;2024-02-23T14:26:55;6;6;
79537;PMS5003;68989;52.032;5.152;2024-02-23T14:29:22;2;2;
79537;PMS5003;68989;52.032;5.152;2024-02-23T14:31:49;3;3;
79537;PMS5003;68989;52.032;5.152;2024-02-23T14:34:16;3;3;
79537;PMS5003;68989;52.032;5.152;2024-02-23T14:36:43;3;3;
79537;PMS5003;68989;52.032;5.152;2024-02-23T14:39:10;4;4;
79537;PMS5003;68989;52.032;5.152;2024-02-23T14:41:37;4;4;
79537;PMS5003;68989;52.032;5.152;2024-02-23T14:44:05;4;4;
79537;PMS5003;68989;52.032;5.152;2024-02-23T14:46:32;3;3;
79537;PMS5003;68989;52.032;5.152;2024-02-23T14:48:59;3;3;
79537;PMS5003;68989;52.032;5.152;2024-02-23T14:51:25;3;3;
79537;PMS5003;68989;52.032;5.152;2024-02-23T14:53:52;2;2;
79537;PMS5003;68989;52.032;5.152;2024-02-23T14:56:19;2;2;
79537;PMS5003;68989;52.032;5.152;2024-02-23T14:58:46;1;1;
79537;PMS5003;68989;52.032;5.152;2024-02-23T15:01:13;2;2;
79537;PMS5003;68989;52.032;5.152;2024-02-23T15:03:40;2;2;
79537;PMS5003;68989;52.032;5.152;2024-02-23T15:06:07;1;1;
79537;PMS5003;68989;52.032;5.152;2024-02-23T15:08:34;2;2;
79537;PMS5003;68989;52.032;5.152;2024-02-23T15:11:00;2;2;
79537;PMS5003;68989;52.032;5.152;2024-02-23T15:13:27;5;3;
79537;PMS5003;68989;52.032;5.152;2024-02-23T15:15:55;4;3;
79537;PMS5003;68989;52.032;5.152;2024-02-23T15:18:22;3;2;
79537;PMS5003;68989;52.032;5.152;2024-02-23T15:20:49;3;3;
79537;PMS5003;68989;52.032;5.152;2024-02-23T15:23:15;3;3;
79537;PMS5003;68989;52.032;5.152;2024-02-23T15:25:42;5;3;
79537;PMS5003;68989;52.032;5.152;2024-02-23T15:28:09;5;3;
79537;PMS5003;68989;52.032;5.152;2024-02-23T15:30:36;3;3;
79537;PMS5003;68989;52.032;5.152;2024-02-23T15:33:03;4;4;
79537;PMS5003;68989;52.032;5.152;2024-02-23T15:35:31;4;4;
79537;PMS5003;68989;52.032;5.152;2024-02-23T15:37:58;5;4;
79537;PMS5003;68989;52.032;5.152;2024-02-23T15:40:25;3;3;
79537;PMS5003;68989;52.032;5.152;2024-02-23T15:42:53;4;3;
79537;PMS5003;68989;52.032;5.152;2024-02-23T15:45:19;5;5;
79537;PMS5003;68989;52.032;5.152;2024-02-23T15:47:46;6;6;
79537;PMS5003;68989;52.032;5.152;2024-02-23T15:50:13;3;3;
79537;PMS5003;68989;52.032;5.152;2024-02-23T15:52:41;5;5;
79537;PMS5003;68989;52.032;5.152;2024-02-23T15:55:08;4;4;
79537;PMS5003;68989;52.032;5.152;2024-02-23T15:57:35;6;6;
79537;PMS5003;68989;52.032;5.152;2024-02-23T16:00:03;6;6;
79537;PMS5003;68989;52.032;5.152;2024-02-23T16:02:30;7;6;
79537;PMS5003;68989;52.032;5.152;2024-02-23T16:04:57;4;4;
79537;PMS5003;68989;52.032;5.152;2024-02-23T16:07:24;4;4;
79537;PMS5003;68989;52.032;5.152;2024-02-23T16:09:51;6;5;
79537;PMS5003;68989;52.032;5.152;2024-02-23T16:12:18;5;5;
79537;PMS5003;68989;52.032;5.152;2024-02-23T16:14:45;6;6;
79537;PMS5003;68989;52.032;5.152;2024-02-23T16:17:12;6;5;
79537;PMS5003;68989;52.032;5.152;2024-02-23T16:19:39;8;8;
79537;PMS5003;68989;52.032;5.152;2024-02-23T16:22:07;8;6;
79537;PMS5003;68989;52.032;5.152;2024-02-23T16:24:34;4;4;
79537;PMS5003;68989;52.032;5.152;2024-02-23T16:27:01;5;4;
79537;PMS5003;68989;52.032;5.152;2024-02-23T16:29:28;4;4;
79537;PMS5003;68989;52.032;5.152;2024-02-23T16:31:55;5;5;
79537;PMS5003;68989;52.032;5.152;2024-02-23T16:34:24;5;5;
79537;PMS5003;68989;52.032;5.152;2024-02-23T16:36:52;4;4;
79537;PMS5003;68989;52.032;5.152;2024-02-23T16:39:19;3;3;
79537;PMS5003;68989;52.032;5.152;2024-02-23T16:41:46;7;5;
79537;PMS5003;68989;52.032;5.152;2024-02-23T16:44:13;3;3;
79537;PMS5003;68989;52.032;5.152;2024-02-23T16:46:40;3;3;
79537;PMS5003;68989;52.032;5.152;2024-02-23T16:49:07;3;3;
79537;PMS5003;68989;52.032;5.152;2024-02-23T16:51:34;6;4;